Trepassey, Canada
Current Conditions -  °F | °C
As of 8:00 AM on Saturday 20 Dec 2014 (Local Time) from CYYT Reporting Station
Overcast Overcast  
Wind Chill: 20°   Ceiling: 1700
Heat Index: 32°   Visibility: 15mi
Dew Point: 28°   Wind: 21mph
Humidity: 87%   Direction: 30°NNE
Pressure: 30.02"   Gusts: NA
Location:  46.73°N, 53.37°W
Report Text: CYYT 201100Z 03018KT 15SM OVC017 M00/M02 A3002 RMK SC8 SLP171
Loading
Personal Weather Stations






























Interactive Weather Map New forecast layout! Learn more

10-Day Weather Forecast

Advertisements
Track Severe Weather on mobile